TAF Italia - 23 Oct 2017 - 0947 UTC - RocketRoute WX - rrwx.com
LIEA 230500Z 2306/2406 31018G30KT CAVOK BECMG 2312/2314 32015KT BECMG 2319/2321 VRB06KT LIBD 230500Z 2306/2406 24010KT CAVOK BECMG 2306/2308 31015KT TEMPO 2312/2318 SHRA BECMG 2318/2320 34018G30KT LIME 230500Z 2306/2406 36007KT CAVOK LIPE 230500Z 2306/2406 VRB05KT 9999 SCT060 LIRN 230500Z 2306/2406 26015G25KT CAVOK BECMG 2310/2312 36016G28KT LICC 230500Z 2306/2406 26013KT 9999 SCT030 LIRA 230500Z 2306/2406 VRB06KT CAVOK BECMG 2306/2308 36016KT BECMG 2318/2320 36006KT LIBC   LIEE 230500Z 2306/2406 32020G30KT CAVOK BECMG 2312/2314 32016KT BECMG 2319/2321 32006KT LIPY 230500Z 2306/2406 01016KT 9999 SCT030 TEMPO 2306/2308 TSRA BECMG 2311/2313 33012KT BECMG 2318/2320 VRB05KT LIRF 230500Z 2306/2412 01018G28KT CAVOK BECMG 2313/2315 36015KT LIMJ 230500Z 2306/2406 01006KT CAVOK LICD 230500Z 2306/2406 33020G35KT CAVOK LIML 230500Z 2306/2406 31004KT CAVOK LIMC 230500Z 2306/2412 03007KT CAVOK LIEO 230500Z 2306/2406 27022G35KT CAVOK BECMG 2309/2311 01013KT BECMG 2319/2321 VRB06KT LICJ AMD 230809Z 2308/2406 28025KT 9999 SCT020 BKN040 TEMPO 2308/2318 SHRA LIBP 230500Z 2306/2406 34018G28KT 9999 SCT040 TEMPO 2306/2316 4000 SHRA BECMG 2316/2318 32010KT LIRP 230500Z 2306/2406 10003KT CAVOK BECMG 2309/2311 33013KT TEMPO 2313/2320 34015G25KT BECMG 2321/2323 02005KT PROB30 TEMPO 2401/2406 5000 BR LICR 230500Z 2306/2406 34016KT CAVOK BECMG 2310/2312 35018G28KT LIMF 230500Z 2306/2406 34006KT CAVOK LIRU 230800Z 2309/2318 36015G25KT CAVOK LIPZ 230500Z 2306/2412 VRB05KT 9999 SCT060

RocketRoute WX - rrwx.com weather for pilots